Time;durP1;ratioP1;P1;durP2;ratioP2;P2;SDS_P1;SDS_P2;PMS_P1;PMS_P2;Temp;Humidity;BMP_temperature;BMP_pressure;BME280_temperature;BME280_humidity;BME280_pressure;Samples;Min_cycle;Max_cycle;Signal;HPM_P1;HPM_P2
2023/01/03 00:01:50;;;;;;;;;7.33;6.00;;;;;;;;116400;1202;25340;-58
2023/01/03 00:04:20;;;;;;;;;11.00;10.00;;;;;;;;116396;1205;25502;-57
2023/01/03 00:06:50;;;;;;;;;14.00;12.00;;;;;;;;116399;1203;25375;-57
2023/01/03 00:09:21;;;;;;;;;8.00;7.00;;;;;;;;116457;1199;25014;-57
2023/01/03 00:14:40;;;;;;;;;12.50;11.00;;;;;;;;116513;1196;25144;-58
2023/01/03 00:17:10;;;;;;;;;13.50;11.50;;;;;;;;116581;1203;25151;-57
2023/01/03 00:19:41;;;;;;;;;11.00;8.50;;;;;;;;116504;1200;25653;-57
2023/01/03 00:22:10;;;;;;;;;11.00;10.00;;;;;;;;116497;1200;25066;-57
2023/01/03 00:24:38;;;;;;;;;10.00;9.50;;;;;;;;116502;1203;24933;-57
2023/01/03 00:27:07;;;;;;;;;9.00;9.00;;;;;;;;116576;1203;25284;-58
2023/01/03 00:29:35;;;;;;;;;9.00;8.50;;;;;;;;116517;1200;25055;-58
2023/01/03 00:32:04;;;;;;;;;11.00;11.00;;;;;;;;116511;1197;24790;-58
2023/01/03 00:34:34;;;;;;;;;11.00;10.00;;;;;;;;116571;1196;25479;-57
2023/01/03 00:37:02;;;;;;;;;11.00;9.50;;;;;;;;116493;1202;25532;-57
2023/01/03 00:39:30;;;;;;;;;9.00;8.00;;;;;;;;116454;1201;25616;-58
2023/01/03 00:41:59;;;;;;;;;13.00;10.00;;;;;;;;116494;1200;24664;-57
2023/01/03 00:44:27;;;;;;;;;10.00;9.00;;;;;;;;116502;1200;24880;-57
2023/01/03 00:46:55;;;;;;;;;10.50;9.50;;;;;;;;116485;1203;24712;-57
2023/01/03 00:49:24;;;;;;;;;11.00;10.00;;;;;;;;116376;1203;25520;-58
2023/01/03 00:51:53;;;;;;;;;11.00;11.00;;;;;;;;116823;1197;25522;-58
2023/01/03 00:54:22;;;;;;;;;9.33;9.00;;;;;;;;116533;1206;25415;-58
2023/01/03 00:56:52;;;;;;;;;14.00;12.00;;;;;;;;116453;1208;25115;-57
2023/01/03 00:59:21;;;;;;;;;14.50;9.50;;;;;;;;116422;1203;25262;-57
2023/01/03 01:01:51;;;;;;;;;11.00;11.00;;;;;;;;116388;1200;25036;-58
2023/01/03 01:04:25;;;;;;;;;11.75;9.50;;;;;;;;116496;1203;25525;-57
2023/01/03 01:06:59;;;;;;;;;15.67;12.33;;;;;;;;116814;1204;25010;-57
2023/01/03 01:09:31;;;;;;;;;11.50;10.00;;;;;;;;116503;1206;24856;-57
2023/01/03 01:12:00;;;;;;;;;12.00;11.00;;;;;;;;116503;1196;25645;-58
2023/01/03 01:14:29;;;;;;;;;15.33;12.00;;;;;;;;116428;1202;25210;-57
2023/01/03 01:17:03;;;;;;;;;12.00;11.00;;;;;;;;116409;1211;24943;-58
2023/01/03 01:19:37;;;;;;;;;11.00;8.00;;;;;;;;116518;1202;25467;-58
2023/01/03 01:22:06;;;;;;;;;10.00;9.33;;;;;;;;116495;1208;25585;-58
2023/01/03 01:24:35;;;;;;;;;9.00;9.00;;;;;;;;116503;1202;25293;-57
2023/01/03 01:27:03;;;;;;;;;10.00;10.00;;;;;;;;116494;1199;24851;-58
2023/01/03 01:29:32;;;;;;;;;14.00;11.00;;;;;;;;116498;1210;25660;-58
2023/01/03 01:32:00;;;;;;;;;8.50;7.25;;;;;;;;116489;1200;25444;-58
2023/01/03 01:34:29;;;;;;;;;12.00;10.00;;;;;;;;116489;1211;25533;-58
2023/01/03 01:36:57;;;;;;;;;8.50;8.50;;;;;;;;116509;1202;26142;-58
2023/01/03 01:39:27;;;;;;;;;14.00;10.67;;;;;;;;116566;1210;25137;-58
2023/01/03 01:45:03;;;;;;;;;9.00;8.00;;;;;;;;116526;1209;25353;-58
2023/01/03 01:47:46;;;;;;;;;13.00;10.00;;;;;;;;116533;1203;25113;-58
2023/01/03 01:50:23;;;;;;;;;9.33;8.33;;;;;;;;116533;1199;25516;-60
2023/01/03 01:53:09;;;;;;;;;11.00;11.00;;;;;;;;116570;1207;25595;-58
2023/01/03 01:55:44;;;;;;;;;12.00;8.00;;;;;;;;116526;1210;26315;-58
2023/01/03 01:58:13;;;;;;;;;9.00;9.00;;;;;;;;116504;1206;24929;-58
2023/01/03 02:00:42;;;;;;;;;13.50;10.00;;;;;;;;116507;1203;25618;-58
2023/01/03 02:03:11;;;;;;;;;13.00;11.00;;;;;;;;116605;1206;25195;-58
2023/01/03 02:05:46;;;;;;;;;14.00;12.00;;;;;;;;116509;1196;25650;-57
2023/01/03 02:08:15;;;;;;;;;10.00;9.00;;;;;;;;116541;1202;25860;-58
2023/01/03 02:11:18;;;;;;;;;10.00;10.00;;;;;;;;116542;1206;25625;-58
2023/01/03 02:13:57;;;;;;;;;15.00;13.00;;;;;;;;116141;1206;25471;-58
2023/01/03 02:16:53;;;;;;;;;11.00;9.00;;;;;;;;116493;1206;24956;-58
2023/01/03 02:19:24;;;;;;;;;11.50;11.50;;;;;;;;116493;1206;24978;-57
2023/01/03 02:22:10;;;;;;;;;9.00;9.00;;;;;;;;116468;1206;25000;-58
2023/01/03 02:24:47;;;;;;;;;13.00;12.00;;;;;;;;116494;1206;25209;-58
2023/01/03 02:27:34;;;;;;;;;13.50;11.00;;;;;;;;116489;1199;24829;-58
2023/01/03 02:30:18;;;;;;;;;11.50;9.50;;;;;;;;116506;1200;25326;-58
2023/01/03 02:32:55;;;;;;;;;11.50;10.50;;;;;;;;116509;1199;25030;-58
2023/01/03 02:35:28;;;;;;;;;14.00;12.00;;;;;;;;116531;1210;24840;-58
2023/01/03 02:38:26;;;;;;;;;10.00;10.00;;;;;;;;116478;1203;24830;-58
2023/01/03 02:41:11;;;;;;;;;13.00;11.00;;;;;;;;116411;1205;24897;-58
2023/01/03 02:43:55;;;;;;;;;10.50;8.50;;;;;;;;116778;1192;24696;-57
2023/01/03 02:46:27;;;;;;;;;;;;;;;;;;116430;1203;24774;-58
2023/01/03 02:48:57;;;;;;;;;10.00;10.00;;;;;;;;116413;1207;25042;-57
2023/01/03 02:51:44;;;;;;;;;12.00;10.00;;;;;;;;116809;1204;24914;-57
2023/01/03 02:54:29;;;;;;;;;12.00;10.50;;;;;;;;116497;1200;25297;-58
2023/01/03 02:57:05;;;;;;;;;12.00;12.00;;;;;;;;116604;1204;24884;-58
2023/01/03 02:59:43;;;;;;;;;12.00;11.50;;;;;;;;116510;1211;25683;-58
2023/01/03 03:02:13;;;;;;;;;13.00;11.00;;;;;;;;116418;1196;24890;-58
2023/01/03 03:04:42;;;;;;;;;13.67;13.00;;;;;;;;116393;1211;25446;-58
2023/01/03 03:07:24;;;;;;;;;13.00;12.00;;;;;;;;116412;1204;24835;-58
2023/01/03 03:15:38;;;;;;;;;14.00;11.00;;;;;;;;116400;1202;25040;-58
2023/01/03 03:18:10;;;;;;;;;13.00;10.50;;;;;;;;116393;1203;24708;-58
2023/01/03 03:26:20;;;;;;;;;13.00;11.00;;;;;;;;116573;1206;25408;-58
2023/01/03 03:29:07;;;;;;;;;12.67;10.00;;;;;;;;116513;1211;25695;-58
2023/01/03 03:31:41;;;;;;;;;16.00;12.50;;;;;;;;116511;1200;24693;-58
2023/01/03 03:34:17;;;;;;;;;10.50;10.50;;;;;;;;116530;1199;24773;-57
2023/01/03 03:36:56;;;;;;;;;10.00;9.00;;;;;;;;116523;1206;24915;-57
2023/01/03 03:45:34;;;;;;;;;12.00;11.00;;;;;;;;116458;1208;24870;-57
2023/01/03 03:48:13;;;;;;;;;10.00;10.00;;;;;;;;116523;1206;24938;-57
2023/01/03 03:50:46;;;;;;;;;11.50;11.00;;;;;;;;116520;1206;24742;-58
2023/01/03 03:53:16;;;;;;;;;11.67;10.67;;;;;;;;116490;1202;25860;-58
2023/01/03 03:56:07;;;;;;;;;11.00;10.50;;;;;;;;116503;1206;24955;-58
2023/01/03 03:58:39;;;;;;;;;10.50;10.50;;;;;;;;116502;1203;24997;-57
2023/01/03 04:01:11;;;;;;;;;12.00;10.00;;;;;;;;116526;1203;25399;-57
2023/01/03 04:03:41;;;;;;;;;10.00;10.00;;;;;;;;116489;1206;25617;-58
2023/01/03 04:06:34;;;;;;;;;12.00;12.00;;;;;;;;116496;1211;24973;-57
2023/01/03 04:09:03;;;;;;;;;11.00;9.50;;;;;;;;116507;1199;25418;-57
2023/01/03 04:11:31;;;;;;;;;11.00;10.00;;;;;;;;116386;1199;25665;-57
2023/01/03 04:13:59;;;;;;;;;10.00;10.00;;;;;;;;116786;1194;25557;-57
2023/01/03 04:16:28;;;;;;;;;13.00;11.00;;;;;;;;116797;1198;25486;-57
2023/01/03 04:18:56;;;;;;;;;10.33;9.33;;;;;;;;116522;1202;24767;-57
2023/01/03 04:21:24;;;;;;;;;11.00;11.00;;;;;;;;116511;1200;24713;-57
2023/01/03 04:23:53;;;;;;;;;13.00;11.50;;;;;;;;116466;1198;25608;-57
2023/01/03 04:26:21;;;;;;;;;12.00;9.00;;;;;;;;116409;1200;25656;-58
2023/01/03 04:28:49;;;;;;;;;13.00;10.00;;;;;;;;116551;1202;24927;-58
2023/01/03 04:31:18;;;;;;;;;10.00;9.50;;;;;;;;116545;1203;25999;-57
2023/01/03 04:33:46;;;;;;;;;11.00;10.00;;;;;;;;116436;1203;25295;-57
2023/01/03 04:36:15;;;;;;;;;13.50;10.00;;;;;;;;116475;1200;25744;-57
2023/01/03 04:38:44;;;;;;;;;10.50;10.00;;;;;;;;116793;1201;25063;-57
2023/01/03 04:41:12;;;;;;;;;10.67;10.67;;;;;;;;116540;1203;24868;-57
2023/01/03 04:46:32;;;;;;;;;11.00;11.00;;;;;;;;116507;1203;25570;-57
2023/01/03 04:49:01;;;;;;;;;10.33;9.33;;;;;;;;116768;1197;24752;-57
2023/01/03 04:51:29;;;;;;;;;12.00;11.50;;;;;;;;116517;1206;25162;-58
2023/01/03 04:53:57;;;;;;;;;;;;;;;;;;116521;1203;24700;-58
2023/01/03 04:56:31;;;;;;;;;14.00;11.00;;;;;;;;116557;1202;24840;-57
2023/01/03 04:59:00;;;;;;;;;13.00;13.00;;;;;;;;116558;1197;25141;-57
2023/01/03 05:01:28;;;;;;;;;11.50;11.50;;;;;;;;116513;1202;25000;-57
2023/01/03 05:03:59;;;;;;;;;12.50;10.00;;;;;;;;116578;1199;25578;-58
2023/01/03 05:06:28;;;;;;;;;14.50;11.00;;;;;;;;116552;1197;24948;-57
2023/01/03 05:08:56;;;;;;;;;;;;;;;;;;116582;1197;25312;-57
2023/01/03 05:11:24;;;;;;;;;9.50;8.00;;;;;;;;116554;1203;25477;-57
2023/01/03 05:13:52;;;;;;;;;13.00;10.00;;;;;;;;116519;1202;24678;-57
2023/01/03 05:16:21;;;;;;;;;10.00;10.00;;;;;;;;116516;1200;24813;-57
2023/01/03 05:18:55;;;;;;;;;12.00;12.00;;;;;;;;116532;1211;24953;-57
2023/01/03 05:26:59;;;;;;;;;10.00;10.00;;;;;;;;116526;1196;25183;-58
2023/01/03 05:29:28;;;;;;;;;10.00;8.00;;;;;;;;116507;1199;25325;-59
2023/01/03 05:31:56;;;;;;;;;12.00;11.00;;;;;;;;116510;1203;25088;-58
2023/01/03 05:34:25;;;;;;;;;12.00;11.33;;;;;;;;116570;1202;25306;-58
2023/01/03 05:36:53;;;;;;;;;12.00;12.00;;;;;;;;116494;1198;25272;-58
2023/01/03 05:39:21;;;;;;;;;13.00;10.33;;;;;;;;116533;1203;25458;-59
2023/01/03 05:41:58;;;;;;;;;10.00;8.00;;;;;;;;116518;1203;25233;-58
2023/01/03 05:44:29;;;;;;;;;10.00;10.00;;;;;;;;116528;1203;25236;-58
2023/01/03 05:46:59;;;;;;;;;7.50;6.50;;;;;;;;116573;1206;25059;-58
2023/01/03 05:49:27;;;;;;;;;12.00;10.00;;;;;;;;116532;1210;25142;-58
2023/01/03 05:51:55;;;;;;;;;11.00;9.50;;;;;;;;116539;1206;25220;-59
2023/01/03 05:54:24;;;;;;;;;11.25;10.25;;;;;;;;116520;1202;25645;-59
2023/01/03 05:56:52;;;;;;;;;13.00;11.50;;;;;;;;116526;1197;25379;-59
2023/01/03 05:59:21;;;;;;;;;11.50;9.00;;;;;;;;116535;1199;24680;-58
2023/01/03 06:01:50;;;;;;;;;12.00;10.00;;;;;;;;116446;1206;24904;-59
2023/01/03 06:04:18;;;;;;;;;9.00;8.00;;;;;;;;116530;1199;24997;-59
2023/01/03 06:06:47;;;;;;;;;12.67;12.00;;;;;;;;116563;1203;25336;-59
2023/01/03 06:09:15;;;;;;;;;14.00;14.00;;;;;;;;116519;1206;25334;-59
2023/01/03 06:11:44;;;;;;;;;14.00;10.00;;;;;;;;116530;1203;24752;-58
2023/01/03 06:14:12;;;;;;;;;11.00;10.00;;;;;;;;116536;1203;24855;-60
2023/01/03 06:19:27;;;;;;;;;13.00;10.00;;;;;;;;116526;1199;24685;-59
2023/01/03 06:21:56;;;;;;;;;10.50;10.00;;;;;;;;116572;1206;25171;-59
2023/01/03 06:24:24;;;;;;;;;17.50;13.50;;;;;;;;116555;1206;24989;-61
2023/01/03 06:26:52;;;;;;;;;15.00;13.00;;;;;;;;116582;1203;25011;-65
2023/01/03 06:29:21;;;;;;;;;18.50;14.50;;;;;;;;116526;1199;25452;-60
2023/01/03 06:31:49;;;;;;;;;16.00;15.00;;;;;;;;116491;1208;24710;-59
2023/01/03 06:34:17;;;;;;;;;9.00;9.00;;;;;;;;116545;1206;25518;-59
2023/01/03 06:36:46;;;;;;;;;17.00;13.00;;;;;;;;116542;1203;24712;-59
2023/01/03 06:39:14;;;;;;;;;19.00;18.50;;;;;;;;116533;1201;24970;-60
2023/01/03 06:41:42;;;;;;;;;;;;;;;;;;116514;1206;25397;-60
2023/01/03 06:44:11;;;;;;;;;17.75;11.00;;;;;;;;116507;1203;24819;-60
2023/01/03 06:55:01;;;;;;;;;19.33;12.00;;;;;;;;116499;1195;25016;-60
2023/01/03 06:57:30;;;;;;;;;15.00;12.00;;;;;;;;116449;1203;25231;-60
2023/01/03 06:59:58;;;;;;;;;13.00;13.00;;;;;;;;116522;1203;25251;-60
2023/01/03 07:02:26;;;;;;;;;13.50;10.50;;;;;;;;116507;1203;25835;-61
2023/01/03 07:04:55;;;;;;;;;11.00;8.50;;;;;;;;116513;1211;25290;-60
2023/01/03 07:07:23;;;;;;;;;18.00;12.00;;;;;;;;116509;1196;25614;-60
2023/01/03 07:09:52;;;;;;;;;11.00;11.00;;;;;;;;116507;1200;25578;-61
2023/01/03 07:15:07;;;;;;;;;14.50;12.50;;;;;;;;116540;1204;25029;-60
2023/01/03 07:17:36;;;;;;;;;19.00;13.00;;;;;;;;116522;1211;25471;-60
2023/01/03 07:20:04;;;;;;;;;14.00;11.00;;;;;;;;116488;1202;24835;-61
2023/01/03 07:22:33;;;;;;;;;14.00;13.00;;;;;;;;116494;1203;25085;-61
2023/01/03 07:25:01;;;;;;;;;15.00;14.00;;;;;;;;116514;1202;24662;-60
2023/01/03 07:27:29;;;;;;;;;18.00;13.00;;;;;;;;116524;1203;24823;-60
2023/01/03 07:29:57;;;;;;;;;13.50;11.00;;;;;;;;116509;1198;25547;-60
2023/01/03 07:32:26;;;;;;;;;11.50;11.00;;;;;;;;116847;1191;25049;-60
2023/01/03 07:34:54;;;;;;;;;11.50;10.00;;;;;;;;116501;1202;25569;-60
2023/01/03 07:37:22;;;;;;;;;14.00;12.00;;;;;;;;116524;1198;25450;-61
2023/01/03 07:39:50;;;;;;;;;10.00;10.00;;;;;;;;116510;1202;24870;-60
2023/01/03 07:45:06;;;;;;;;;11.00;9.50;;;;;;;;116525;1198;24824;-60
2023/01/03 07:47:34;;;;;;;;;14.50;11.50;;;;;;;;116519;1196;25147;-61
2023/01/03 07:50:03;;;;;;;;;11.00;11.00;;;;;;;;116504;1200;25618;-61
2023/01/03 07:52:31;;;;;;;;;13.00;11.00;;;;;;;;116526;1203;24903;-60
2023/01/03 07:54:59;;;;;;;;;14.00;11.00;;;;;;;;116523;1206;25571;-60
2023/01/03 07:57:28;;;;;;;;;11.50;10.50;;;;;;;;116501;1204;25665;-60
2023/01/03 07:59:56;;;;;;;;;16.00;11.00;;;;;;;;116811;1194;25117;-60
2023/01/03 08:02:25;;;;;;;;;10.50;9.00;;;;;;;;116519;1203;25619;-60
2023/01/03 08:04:53;;;;;;;;;14.67;13.00;;;;;;;;116513;1203;25006;-61
2023/01/03 08:07:22;;;;;;;;;14.00;13.00;;;;;;;;116804;1197;24851;-60
2023/01/03 08:15:24;;;;;;;;;14.00;11.00;;;;;;;;116531;1198;25536;-60
2023/01/03 08:17:52;;;;;;;;;13.00;9.00;;;;;;;;116528;1202;25048;-61
2023/01/03 08:20:20;;;;;;;;;14.33;12.33;;;;;;;;116488;1196;25193;-60
2023/01/03 08:22:49;;;;;;;;;17.00;14.00;;;;;;;;116819;1201;25465;-60
2023/01/03 08:25:17;;;;;;;;;14.00;12.00;;;;;;;;116541;1206;25550;-60
2023/01/03 08:27:45;;;;;;;;;12.00;10.00;;;;;;;;116818;1194;25519;-61
2023/01/03 08:30:17;;;;;;;;;14.50;11.50;;;;;;;;116532;1207;25359;-60
2023/01/03 08:32:46;;;;;;;;;13.00;9.00;;;;;;;;116496;1192;24943;-61
2023/01/03 08:35:15;;;;;;;;;12.00;11.00;;;;;;;;116455;1211;25218;-61
2023/01/03 08:37:44;;;;;;;;;16.00;12.50;;;;;;;;116504;1206;25774;-61
2023/01/03 08:40:15;;;;;;;;;12.00;10.00;;;;;;;;116547;1198;24947;-59
2023/01/03 08:42:44;;;;;;;;;10.00;9.67;;;;;;;;116833;1204;25394;-61
2023/01/03 08:45:15;;;;;;;;;13.50;12.50;;;;;;;;116390;1211;25603;-58
2023/01/03 08:47:43;;;;;;;;;13.00;13.00;;;;;;;;116490;1203;25175;-59
2023/01/03 08:50:12;;;;;;;;;;;;;;;;;;116789;1194;25659;-59
2023/01/03 08:52:40;;;;;;;;;18.00;14.00;;;;;;;;116524;1206;24709;-59
2023/01/03 08:55:08;;;;;;;;;14.00;12.00;;;;;;;;116483;1205;25455;-59
2023/01/03 08:57:37;;;;;;;;;14.00;14.00;;;;;;;;116771;1209;25292;-59
2023/01/03 09:00:06;;;;;;;;;17.00;14.00;;;;;;;;116469;1211;25247;-59
2023/01/03 09:02:35;;;;;;;;;26.00;21.00;;;;;;;;116528;1207;25335;-59
2023/01/03 09:05:04;;;;;;;;;30.50;27.50;;;;;;;;116462;1196;25736;-59
2023/01/03 09:07:33;;;;;;;;;25.00;20.50;;;;;;;;116544;1206;24908;-60
2023/01/03 09:10:01;;;;;;;;;25.00;19.50;;;;;;;;116395;1207;25148;-59
2023/01/03 09:12:29;;;;;;;;;25.00;20.00;;;;;;;;116455;1211;24959;-59
2023/01/03 09:14:58;;;;;;;;;23.50;21.00;;;;;;;;116443;1199;25738;-60
2023/01/03 09:17:28;;;;;;;;;23.50;21.00;;;;;;;;116520;1203;25319;-59
2023/01/03 09:19:56;;;;;;;;;24.25;22.50;;;;;;;;116513;1202;25583;-59
2023/01/03 09:22:24;;;;;;;;;24.50;23.50;;;;;;;;116487;1205;25357;-59
2023/01/03 09:24:54;;;;;;;;;30.50;27.50;;;;;;;;116467;1203;24768;-59
2023/01/03 09:27:22;;;;;;;;;26.33;23.33;;;;;;;;116498;1211;25301;-59
2023/01/03 09:29:52;;;;;;;;;34.50;27.00;;;;;;;;116439;1210;24962;-60
2023/01/03 09:32:20;;;;;;;;;27.00;23.00;;;;;;;;116530;1203;26051;-60
2023/01/03 09:34:48;;;;;;;;;29.50;27.00;;;;;;;;116511;1202;24836;-60
2023/01/03 09:37:16;;;;;;;;;31.50;26.50;;;;;;;;116537;1200;25512;-59
2023/01/03 09:39:45;;;;;;;;;34.50;31.00;;;;;;;;116526;1204;25461;-60
2023/01/03 09:45:07;;;;;;;;;39.00;33.00;;;;;;;;116492;1198;25141;-60
2023/01/03 09:47:37;;;;;;;;;28.00;24.00;;;;;;;;116520;1199;25023;-60
2023/01/03 09:50:14;;;;;;;;;33.50;28.50;;;;;;;;116536;1202;25124;-60
2023/01/03 10:04:37;;;;;;;;;38.50;33.50;;;;;;;;116509;1198;24699;-61
2023/01/03 10:07:36;;;;;;;;;33.00;28.00;;;;;;;;116480;1203;25138;-61
2023/01/03 10:10:20;;;;;;;;;32.00;30.00;;;;;;;;116575;1202;25172;-60
2023/01/03 10:12:55;;;;;;;;;44.00;35.00;;;;;;;;116546;1205;24779;-60
2023/01/03 10:16:01;;;;;;;;;39.00;34.00;;;;;;;;116554;1203;25520;-60
2023/01/03 10:18:50;;;;;;;;;40.00;32.00;;;;;;;;116552;1199;25371;-60
2023/01/03 10:21:24;;;;;;;;;33.00;28.00;;;;;;;;116526;1203;24723;-60
2023/01/03 10:23:54;;;;;;;;;40.00;34.50;;;;;;;;116524;1206;25141;-61
2023/01/03 10:26:24;;;;;;;;;41.50;32.50;;;;;;;;116530;1206;25414;-60
2023/01/03 10:29:00;;;;;;;;;43.50;35.00;;;;;;;;116504;1211;24841;-60
2023/01/03 10:31:34;;;;;;;;;49.00;39.50;;;;;;;;116525;1201;24714;-61
2023/01/03 10:34:05;;;;;;;;;51.00;36.50;;;;;;;;116554;1202;25082;-60
2023/01/03 10:36:33;;;;;;;;;;;;;;;;;;116564;1206;24857;-61
2023/01/03 10:39:07;;;;;;;;;54.00;43.00;;;;;;;;116514;1211;24849;-62
2023/01/03 10:41:43;;;;;;;;;45.00;36.50;;;;;;;;116484;1203;24734;-61
2023/01/03 10:44:26;;;;;;;;;52.00;42.00;;;;;;;;116499;1200;25577;-61
2023/01/03 10:46:58;;;;;;;;;43.00;36.00;;;;;;;;116400;1204;25140;-61
2023/01/03 10:49:29;;;;;;;;;47.00;38.00;;;;;;;;116577;1197;24778;-61
2023/01/03 10:52:18;;;;;;;;;54.00;40.00;;;;;;;;116549;1210;25125;-61
2023/01/03 10:54:47;;;;;;;;;51.00;39.00;;;;;;;;116543;1205;25052;-62
2023/01/03 10:57:38;;;;;;;;;56.00;42.00;;;;;;;;116558;1201;25322;-62
2023/01/03 11:00:34;;;;;;;;;52.00;42.00;;;;;;;;116565;1199;25276;-62
2023/01/03 11:03:18;;;;;;;;;53.00;44.50;;;;;;;;116542;1204;25547;-62
2023/01/03 11:05:59;;;;;;;;;52.00;40.00;;;;;;;;116542;1197;24880;-62
2023/01/03 11:08:48;;;;;;;;;54.00;40.00;;;;;;;;116556;1202;25158;-62
2023/01/03 11:11:31;;;;;;;;;50.00;40.50;;;;;;;;116523;1211;25049;-62
2023/01/03 11:14:08;;;;;;;;;49.00;41.00;;;;;;;;116506;1200;25770;-61
2023/01/03 11:16:36;;;;;;;;;49.33;37.67;;;;;;;;116538;1206;25237;-61
2023/01/03 11:19:05;;;;;;;;;57.50;42.00;;;;;;;;116512;1200;25099;-60
2023/01/03 11:21:54;;;;;;;;;51.50;40.50;;;;;;;;116545;1201;25549;-60
2023/01/03 11:24:50;;;;;;;;;46.00;40.00;;;;;;;;116602;1203;24991;-60
2023/01/03 11:27:39;;;;;;;;;57.00;44.00;;;;;;;;116533;1206;25321;-59
2023/01/03 11:30:31;;;;;;;;;54.00;41.50;;;;;;;;116509;1205;25393;-58
2023/01/03 11:33:15;;;;;;;;;;;;;;;;;;116493;1210;25368;-59
2023/01/03 11:36:01;;;;;;;;;54.50;42.50;;;;;;;;116573;1202;25678;-58
2023/01/03 11:38:47;;;;;;;;;52.00;38.50;;;;;;;;116524;1202;25091;-58
2023/01/03 11:41:53;;;;;;;;;50.00;41.00;;;;;;;;116402;1202;25086;-58
2023/01/03 11:44:49;;;;;;;;;54.00;43.00;;;;;;;;116220;1211;25393;-58
2023/01/03 11:47:23;;;;;;;;;51.00;38.00;;;;;;;;116506;1203;25496;-58
2023/01/03 11:49:59;;;;;;;;;48.00;37.00;;;;;;;;116529;1199;25621;-57
2023/01/03 11:53:00;;;;;;;;;44.50;35.00;;;;;;;;116493;1200;24848;-57
2023/01/03 11:56:22;;;;;;;;;44.00;39.00;;;;;;;;116398;1203;25267;-57
2023/01/03 11:59:10;;;;;;;;;52.50;40.50;;;;;;;;116094;1206;25181;-57
2023/01/03 12:02:00;;;;;;;;;49.00;38.50;;;;;;;;116422;1211;25513;-57
2023/01/03 12:04:34;;;;;;;;;46.50;37.00;;;;;;;;116520;1197;25493;-57
2023/01/03 12:07:12;;;;;;;;;51.00;41.00;;;;;;;;116572;1202;25126;-57
2023/01/03 12:10:16;;;;;;;;;50.50;39.00;;;;;;;;116523;1199;25285;-57
2023/01/03 12:13:06;;;;;;;;;44.00;35.00;;;;;;;;116502;1203;24773;-57
2023/01/03 12:15:42;;;;;;;;;;;;;;;;;;116515;1198;25404;-57
2023/01/03 12:18:29;;;;;;;;;52.00;41.00;;;;;;;;116501;1202;25228;-57
2023/01/03 12:21:04;;;;;;;;;49.00;40.00;;;;;;;;116539;1211;25472;-57
2023/01/03 12:24:14;;;;;;;;;50.00;41.00;;;;;;;;116514;1211;24748;-57
2023/01/03 12:26:47;;;;;;;;;50.50;37.50;;;;;;;;116535;1203;25411;-57
2023/01/03 12:29:53;;;;;;;;;48.50;36.00;;;;;;;;116488;1206;24805;-57
2023/01/03 12:32:33;;;;;;;;;43.00;36.50;;;;;;;;116523;1206;24879;-57
2023/01/03 12:35:31;;;;;;;;;46.50;37.00;;;;;;;;116547;1202;25233;-57
2023/01/03 12:37:59;;;;;;;;;45.00;37.00;;;;;;;;116529;1197;25670;-57
2023/01/03 12:40:38;;;;;;;;;45.00;37.50;;;;;;;;116508;1211;25181;-57
2023/01/03 12:43:14;;;;;;;;;49.00;37.00;;;;;;;;116538;1203;24808;-58
2023/01/03 12:45:53;;;;;;;;;51.00;37.50;;;;;;;;116545;1203;25423;-57
2023/01/03 12:48:30;;;;;;;;;38.00;35.00;;;;;;;;116526;1206;25408;-58
2023/01/03 12:50:59;;;;;;;;;47.00;36.00;;;;;;;;116574;1202;25376;-58
2023/01/03 12:53:44;;;;;;;;;44.00;35.00;;;;;;;;116491;1203;25450;-58
2023/01/03 12:56:43;;;;;;;;;49.50;38.50;;;;;;;;116500;1198;26196;-57
2023/01/03 12:59:30;;;;;;;;;48.50;36.50;;;;;;;;116404;1200;25118;-57
2023/01/03 13:02:04;;;;;;;;;47.00;36.50;;;;;;;;116494;1211;25377;-58
2023/01/03 13:04:36;;;;;;;;;52.00;41.00;;;;;;;;116380;1202;24984;-57
2023/01/03 13:07:14;;;;;;;;;46.50;37.00;;;;;;;;116490;1206;24934;-58
2023/01/03 13:09:48;;;;;;;;;53.00;40.00;;;;;;;;116484;1196;25448;-58
2023/01/03 13:12:29;;;;;;;;;47.00;37.00;;;;;;;;116493;1203;25614;-58
2023/01/03 13:15:01;;;;;;;;;48.50;37.00;;;;;;;;116514;1200;25621;-58
2023/01/03 13:17:31;;;;;;;;;51.00;41.00;;;;;;;;116533;1206;25594;-58
2023/01/03 13:20:30;;;;;;;;;42.00;37.00;;;;;;;;116520;1203;25705;-58
2023/01/03 13:23:07;;;;;;;;;49.00;38.00;;;;;;;;116531;1202;24963;-58
2023/01/03 13:25:38;;;;;;;;;48.00;38.00;;;;;;;;116531;1204;24694;-58
2023/01/03 13:28:19;;;;;;;;;48.00;38.00;;;;;;;;116509;1200;25353;-58
2023/01/03 13:30:47;;;;;;;;;51.50;41.00;;;;;;;;116566;1203;25282;-58
2023/01/03 13:33:19;;;;;;;;;50.00;37.00;;;;;;;;116487;1207;25159;-58
2023/01/03 13:35:47;;;;;;;;;;;;;;;;;;116591;1197;25109;-58
2023/01/03 13:38:30;;;;;;;;;45.50;35.00;;;;;;;;116552;1203;24741;-58
2023/01/03 13:41:01;;;;;;;;;42.50;34.00;;;;;;;;116533;1203;24784;-58
2023/01/03 13:43:50;;;;;;;;;50.00;40.00;;;;;;;;116418;1206;25346;-58
2023/01/03 13:46:27;;;;;;;;;52.00;40.00;;;;;;;;116456;1200;25200;-58
2023/01/03 13:48:58;;;;;;;;;52.00;38.50;;;;;;;;116408;1205;26332;-58
2023/01/03 13:51:34;;;;;;;;;50.00;38.00;;;;;;;;116523;1205;25020;-58
2023/01/03 13:54:43;;;;;;;;;46.00;37.50;;;;;;;;116497;1206;25644;-58
2023/01/03 13:57:30;;;;;;;;;42.00;34.50;;;;;;;;116481;1196;25735;-58
2023/01/03 13:59:59;;;;;;;;;52.00;41.00;;;;;;;;116523;1198;25018;-57
2023/01/03 14:02:48;;;;;;;;;42.00;34.00;;;;;;;;116487;1203;25074;-57
2023/01/03 14:05:41;;;;;;;;;45.00;37.00;;;;;;;;116498;1196;25546;-57
2023/01/03 14:08:26;;;;;;;;;48.00;37.50;;;;;;;;116571;1202;25083;-57
2023/01/03 14:11:05;;;;;;;;;;;;;;;;;;116564;1197;25218;-58
2023/01/03 14:13:41;;;;;;;;;50.00;37.00;;;;;;;;116489;1208;25201;-58
2023/01/03 14:16:14;;;;;;;;;;;;;;;;;;116540;1192;25059;-58
2023/01/03 14:18:47;;;;;;;;;46.00;37.00;;;;;;;;116472;1206;25099;-58
2023/01/03 14:21:20;;;;;;;;;;;;;;;;;;116557;1203;25410;-58
2023/01/03 14:23:57;;;;;;;;;38.50;33.00;;;;;;;;116552;1211;25025;-58
2023/01/03 14:26:30;;;;;;;;;47.00;37.00;;;;;;;;116520;1203;25478;-58
2023/01/03 14:28:59;;;;;;;;;41.00;36.00;;;;;;;;116545;1197;24889;-58
2023/01/03 14:31:27;;;;;;;;;46.00;35.50;;;;;;;;116547;1202;24767;-58
2023/01/03 14:33:58;;;;;;;;;44.00;37.00;;;;;;;;116499;1211;24926;-58
2023/01/03 14:36:27;;;;;;;;;46.00;36.00;;;;;;;;116555;1202;25516;-58
2023/01/03 14:38:58;;;;;;;;;47.00;37.00;;;;;;;;116555;1196;25563;-58
2023/01/03 14:41:27;;;;;;;;;42.00;36.00;;;;;;;;116539;1205;24703;-58
2023/01/03 14:44:06;;;;;;;;;50.00;39.00;;;;;;;;116533;1203;25472;-58
2023/01/03 14:46:35;;;;;;;;;49.00;38.00;;;;;;;;116557;1205;25691;-58
2023/01/03 14:49:16;;;;;;;;;44.00;37.00;;;;;;;;116413;1209;24758;-58
2023/01/03 14:51:45;;;;;;;;;49.00;34.00;;;;;;;;116822;1197;25501;-58
2023/01/03 14:54:16;;;;;;;;;46.00;37.00;;;;;;;;116485;1211;24911;-58
2023/01/03 14:56:45;;;;;;;;;44.00;36.00;;;;;;;;116366;1210;25612;-58
2023/01/03 14:59:15;;;;;;;;;43.00;34.00;;;;;;;;116363;1203;24934;-58
2023/01/03 15:01:45;;;;;;;;;49.00;37.00;;;;;;;;116395;1205;25711;-58
2023/01/03 15:04:15;;;;;;;;;51.50;40.00;;;;;;;;116378;1209;25651;-58
2023/01/03 15:07:02;;;;;;;;;47.00;37.00;;;;;;;;116368;1208;25657;-58
2023/01/03 15:09:40;;;;;;;;;40.00;34.00;;;;;;;;116363;1203;25336;-58
2023/01/03 15:12:08;;;;;;;;;46.00;35.00;;;;;;;;116364;1199;25586;-58
2023/01/03 15:14:38;;;;;;;;;44.00;37.00;;;;;;;;116562;1209;25126;-58
2023/01/03 15:17:09;;;;;;;;;34.50;33.00;;;;;;;;116385;1196;24948;-58
2023/01/03 15:19:38;;;;;;;;;;;;;;;;;;116386;1208;25370;-58
2023/01/03 15:22:36;;;;;;;;;;;;;;;;;;116366;1199;25546;-58
2023/01/03 15:25:19;;;;;;;;;47.00;37.00;;;;;;;;116332;1203;25388;-58
2023/01/03 15:27:49;;;;;;;;;39.00;34.00;;;;;;;;116357;1205;24714;-58
2023/01/03 15:30:23;;;;;;;;;35.00;32.50;;;;;;;;116387;1211;25259;-58
2023/01/03 15:33:01;;;;;;;;;39.00;34.00;;;;;;;;116367;1198;25316;-58
2023/01/03 15:35:37;;;;;;;;;38.00;32.00;;;;;;;;116332;1208;25607;-58
2023/01/03 15:38:14;;;;;;;;;;;;;;;;;;116347;1200;25279;-58
2023/01/03 15:40:46;;;;;;;;;35.00;32.00;;;;;;;;116338;1202;25515;-58
2023/01/03 15:43:22;;;;;;;;;39.00;31.00;;;;;;;;116396;1200;25067;-58
2023/01/03 15:46:13;;;;;;;;;42.00;31.00;;;;;;;;116385;1208;25682;-58
2023/01/03 15:48:49;;;;;;;;;38.00;34.00;;;;;;;;116339;1209;24708;-58
2023/01/03 15:51:17;;;;;;;;;48.00;35.00;;;;;;;;116380;1208;24988;-58
2023/01/03 15:53:45;;;;;;;;;42.00;32.00;;;;;;;;116411;1199;25586;-58
2023/01/03 15:56:19;;;;;;;;;46.00;35.00;;;;;;;;116540;1211;24814;-58
2023/01/03 15:58:50;;;;;;;;;44.50;33.50;;;;;;;;116468;1203;24788;-58
2023/01/03 16:01:19;;;;;;;;;;;;;;;;;;116515;1200;25228;-58
2023/01/03 16:03:48;;;;;;;;;39.50;35.00;;;;;;;;116498;1202;25148;-58